sensor_id;sensor_type;location;lat;lon;timestamp;temperature;humidity
11639;DHT22;5875;35.940;126.892;2023-04-25T00:00:04;13.40;62.50
11639;DHT22;5875;35.940;126.892;2023-04-25T00:02:33;13.40;58.60
11639;DHT22;5875;35.940;126.892;2023-04-25T00:05:02;13.40;58.90
11639;DHT22;5875;35.940;126.892;2023-04-25T00:07:29;13.40;57.10
11639;DHT22;5875;35.940;126.892;2023-04-25T00:09:58;13.40;57.30
11639;DHT22;5875;35.940;126.892;2023-04-25T00:12:25;13.40;57.30
11639;DHT22;5875;35.940;126.892;2023-04-25T00:14:55;13.40;52.90
11639;DHT22;5875;35.940;126.892;2023-04-25T00:17:23;13.50;51.50
11639;DHT22;5875;35.940;126.892;2023-04-25T00:19:51;13.50;51.40
11639;DHT22;5875;35.940;126.892;2023-04-25T00:22:19;13.50;51.70
11639;DHT22;5875;35.940;126.892;2023-04-25T00:24:47;13.60;51.70
11639;DHT22;5875;35.940;126.892;2023-04-25T00:27:14;13.50;49.80
11639;DHT22;5875;35.940;126.892;2023-04-25T00:29:41;13.50;48.80
11639;DHT22;5875;35.940;126.892;2023-04-25T00:32:08;13.40;46.90
11639;DHT22;5875;35.940;126.892;2023-04-25T00:34:36;13.40;47.80
11639;DHT22;5875;35.940;126.892;2023-04-25T00:37:03;13.30;50.30
11639;DHT22;5875;35.940;126.892;2023-04-25T00:39:31;13.30;51.30
11639;DHT22;5875;35.940;126.892;2023-04-25T00:41:58;13.30;51.00
11639;DHT22;5875;35.940;126.892;2023-04-25T00:44:26;13.40;53.20
11639;DHT22;5875;35.940;126.892;2023-04-25T00:46:56;13.40;52.10
11639;DHT22;5875;35.940;126.892;2023-04-25T00:49:23;13.40;55.00
11639;DHT22;5875;35.940;126.892;2023-04-25T00:51:50;13.40;52.70
11639;DHT22;5875;35.940;126.892;2023-04-25T00:54:17;13.40;50.60
11639;DHT22;5875;35.940;126.892;2023-04-25T00:56:45;13.40;53.70
11639;DHT22;5875;35.940;126.892;2023-04-25T00:59:13;13.50;53.10
11639;DHT22;5875;35.940;126.892;2023-04-25T01:01:40;13.40;50.60
11639;DHT22;5875;35.940;126.892;2023-04-25T01:04:08;13.40;50.70
11639;DHT22;5875;35.940;126.892;2023-04-25T01:06:35;13.30;48.60
11639;DHT22;5875;35.940;126.892;2023-04-25T01:09:04;13.30;47.00
11639;DHT22;5875;35.940;126.892;2023-04-25T01:11:31;13.30;48.60
11639;DHT22;5875;35.940;126.892;2023-04-25T01:13:59;13.30;50.80
11639;DHT22;5875;35.940;126.892;2023-04-25T01:16:27;13.40;51.20
11639;DHT22;5875;35.940;126.892;2023-04-25T01:18:54;13.40;50.60
11639;DHT22;5875;35.940;126.892;2023-04-25T01:21:22;13.40;50.10
11639;DHT22;5875;35.940;126.892;2023-04-25T01:23:49;13.50;54.10
11639;DHT22;5875;35.940;126.892;2023-04-25T01:26:17;13.50;57.20
11639;DHT22;5875;35.940;126.892;2023-04-25T01:28:45;13.60;55.70
11639;DHT22;5875;35.940;126.892;2023-04-25T01:31:12;13.50;55.30
11639;DHT22;5875;35.940;126.892;2023-04-25T01:33:40;13.60;55.90
11639;DHT22;5875;35.940;126.892;2023-04-25T01:36:07;13.60;56.30
11639;DHT22;5875;35.940;126.892;2023-04-25T01:38:34;13.70;60.40
11639;DHT22;5875;35.940;126.892;2023-04-25T01:41:02;13.70;56.40
11639;DHT22;5875;35.940;126.892;2023-04-25T01:43:29;13.60;59.00
11639;DHT22;5875;35.940;126.892;2023-04-25T01:45:57;13.70;60.40
11639;DHT22;5875;35.940;126.892;2023-04-25T01:48:24;13.70;60.60
11639;DHT22;5875;35.940;126.892;2023-04-25T01:50:51;13.60;60.30
11639;DHT22;5875;35.940;126.892;2023-04-25T01:53:19;13.70;64.80
11639;DHT22;5875;35.940;126.892;2023-04-25T01:55:46;13.60;62.40
11639;DHT22;5875;35.940;126.892;2023-04-25T01:58:13;13.60;64.60
11639;DHT22;5875;35.940;126.892;2023-04-25T02:00:40;13.50;65.40
11639;DHT22;5875;35.940;126.892;2023-04-25T02:03:08;13.60;66.80
11639;DHT22;5875;35.940;126.892;2023-04-25T02:05:38;13.60;71.70
11639;DHT22;5875;35.940;126.892;2023-04-25T02:08:08;13.60;72.00
11639;DHT22;5875;35.940;126.892;2023-04-25T02:10:36;13.50;72.50
11639;DHT22;5875;35.940;126.892;2023-04-25T02:13:03;13.60;73.40
11639;DHT22;5875;35.940;126.892;2023-04-25T02:15:32;13.60;71.00
11639;DHT22;5875;35.940;126.892;2023-04-25T02:17:59;13.60;73.90
11639;DHT22;5875;35.940;126.892;2023-04-25T02:20:30;13.50;74.20
11639;DHT22;5875;35.940;126.892;2023-04-25T02:22:58;13.40;75.60
11639;DHT22;5875;35.940;126.892;2023-04-25T02:25:25;13.40;77.90
11639;DHT22;5875;35.940;126.892;2023-04-25T02:27:52;13.40;80.20
11639;DHT22;5875;35.940;126.892;2023-04-25T02:30:20;13.40;82.80
11639;DHT22;5875;35.940;126.892;2023-04-25T02:32:47;13.40;78.60
11639;DHT22;5875;35.940;126.892;2023-04-25T02:35:14;13.40;85.00
11639;DHT22;5875;35.940;126.892;2023-04-25T02:37:42;13.40;89.30
11639;DHT22;5875;35.940;126.892;2023-04-25T02:40:10;13.40;85.90
11639;DHT22;5875;35.940;126.892;2023-04-25T02:42:37;13.30;86.50
11639;DHT22;5875;35.940;126.892;2023-04-25T02:45:05;13.30;88.60
11639;DHT22;5875;35.940;126.892;2023-04-25T02:47:32;13.30;89.70
11639;DHT22;5875;35.940;126.892;2023-04-25T02:49:59;13.30;90.20
11639;DHT22;5875;35.940;126.892;2023-04-25T02:52:26;13.30;89.10
11639;DHT22;5875;35.940;126.892;2023-04-25T02:54:53;13.30;91.90
11639;DHT22;5875;35.940;126.892;2023-04-25T02:57:21;13.40;92.80
11639;DHT22;5875;35.940;126.892;2023-04-25T02:59:48;13.40;93.40
11639;DHT22;5875;35.940;126.892;2023-04-25T03:02:15;13.40;95.30
11639;DHT22;5875;35.940;126.892;2023-04-25T03:04:42;13.40;99.90
11639;DHT22;5875;35.940;126.892;2023-04-25T03:07:10;13.40;99.90
11639;DHT22;5875;35.940;126.892;2023-04-25T03:09:37;13.40;99.90
11639;DHT22;5875;35.940;126.892;2023-04-25T03:12:05;13.40;99.90
11639;DHT22;5875;35.940;126.892;2023-04-25T03:14:35;13.40;99.90
11639;DHT22;5875;35.940;126.892;2023-04-25T03:17:02;13.50;99.90
11639;DHT22;5875;35.940;126.892;2023-04-25T03:19:30;13.40;99.90
11639;DHT22;5875;35.940;126.892;2023-04-25T03:21:57;13.50;99.90
11639;DHT22;5875;35.940;126.892;2023-04-25T03:24:24;13.40;99.90
11639;DHT22;5875;35.940;126.892;2023-04-25T03:26:52;13.50;99.90
11639;DHT22;5875;35.940;126.892;2023-04-25T03:29:19;13.30;99.90
11639;DHT22;5875;35.940;126.892;2023-04-25T03:31:50;13.30;99.90
11639;DHT22;5875;35.940;126.892;2023-04-25T03:34:17;13.20;99.90
11639;DHT22;5875;35.940;126.892;2023-04-25T03:36:45;13.20;99.90
11639;DHT22;5875;35.940;126.892;2023-04-25T03:39:12;13.30;99.90
11639;DHT22;5875;35.940;126.892;2023-04-25T03:41:39;13.20;99.90
11639;DHT22;5875;35.940;126.892;2023-04-25T03:44:07;13.30;99.90
11639;DHT22;5875;35.940;126.892;2023-04-25T03:46:34;13.30;99.90
11639;DHT22;5875;35.940;126.892;2023-04-25T03:49:01;13.30;99.90
11639;DHT22;5875;35.940;126.892;2023-04-25T03:51:28;13.20;99.90
11639;DHT22;5875;35.940;126.892;2023-04-25T03:53:57;13.20;99.90
11639;DHT22;5875;35.940;126.892;2023-04-25T03:56:24;13.20;99.90
11639;DHT22;5875;35.940;126.892;2023-04-25T03:58:51;13.20;99.90
11639;DHT22;5875;35.940;126.892;2023-04-25T04:01:18;13.30;99.90
11639;DHT22;5875;35.940;126.892;2023-04-25T04:03:45;13.40;99.90
11639;DHT22;5875;35.940;126.892;2023-04-25T04:06:13;13.30;99.90
11639;DHT22;5875;35.940;126.892;2023-04-25T04:08:40;13.40;99.90
11639;DHT22;5875;35.940;126.892;2023-04-25T04:11:07;13.30;99.90
11639;DHT22;5875;35.940;126.892;2023-04-25T04:13:34;13.40;99.90
11639;DHT22;5875;35.940;126.892;2023-04-25T04:16:01;13.40;99.90
11639;DHT22;5875;35.940;126.892;2023-04-25T04:18:30;13.40;99.90
11639;DHT22;5875;35.940;126.892;2023-04-25T04:20:59;13.40;99.90
11639;DHT22;5875;35.940;126.892;2023-04-25T04:23:27;13.50;99.90
11639;DHT22;5875;35.940;126.892;2023-04-25T04:25:55;13.50;99.90
11639;DHT22;5875;35.940;126.892;2023-04-25T04:28:22;13.50;99.90
11639;DHT22;5875;35.940;126.892;2023-04-25T04:30:49;13.50;99.90
11639;DHT22;5875;35.940;126.892;2023-04-25T04:33:18;13.60;99.90
11639;DHT22;5875;35.940;126.892;2023-04-25T04:35:46;13.50;99.90
11639;DHT22;5875;35.940;126.892;2023-04-25T04:38:14;13.50;99.90
11639;DHT22;5875;35.940;126.892;2023-04-25T04:40:45;13.60;99.90
11639;DHT22;5875;35.940;126.892;2023-04-25T04:43:12;13.60;99.90
11639;DHT22;5875;35.940;126.892;2023-04-25T04:45:41;13.60;99.90
11639;DHT22;5875;35.940;126.892;2023-04-25T04:48:08;13.60;99.90
11639;DHT22;5875;35.940;126.892;2023-04-25T04:50:38;13.50;99.90
11639;DHT22;5875;35.940;126.892;2023-04-25T04:53:06;13.50;99.90
11639;DHT22;5875;35.940;126.892;2023-04-25T04:55:33;13.50;99.90
11639;DHT22;5875;35.940;126.892;2023-04-25T04:58:00;13.60;99.90
11639;DHT22;5875;35.940;126.892;2023-04-25T05:00:27;13.60;99.90
11639;DHT22;5875;35.940;126.892;2023-04-25T05:03:02;13.60;99.90
11639;DHT22;5875;35.940;126.892;2023-04-25T05:05:31;13.60;99.90
11639;DHT22;5875;35.940;126.892;2023-04-25T05:07:59;13.60;99.90
11639;DHT22;5875;35.940;126.892;2023-04-25T05:10:26;13.60;99.90
11639;DHT22;5875;35.940;126.892;2023-04-25T05:12:53;13.60;99.90
11639;DHT22;5875;35.940;126.892;2023-04-25T05:15:20;13.80;99.90
11639;DHT22;5875;35.940;126.892;2023-04-25T05:17:48;13.80;99.90
11639;DHT22;5875;35.940;126.892;2023-04-25T05:20:15;13.70;99.90
11639;DHT22;5875;35.940;126.892;2023-04-25T05:22:42;13.70;99.90
11639;DHT22;5875;35.940;126.892;2023-04-25T05:25:09;13.50;99.90
11639;DHT22;5875;35.940;126.892;2023-04-25T05:27:37;13.60;99.90
11639;DHT22;5875;35.940;126.892;2023-04-25T05:30:04;13.60;99.90
11639;DHT22;5875;35.940;126.892;2023-04-25T05:32:32;13.60;99.90
11639;DHT22;5875;35.940;126.892;2023-04-25T05:34:59;13.40;99.90
11639;DHT22;5875;35.940;126.892;2023-04-25T05:37:26;13.40;99.90
11639;DHT22;5875;35.940;126.892;2023-04-25T05:39:53;13.50;99.90
11639;DHT22;5875;35.940;126.892;2023-04-25T05:42:21;13.50;99.90
11639;DHT22;5875;35.940;126.892;2023-04-25T05:44:48;13.50;99.90
11639;DHT22;5875;35.940;126.892;2023-04-25T05:47:15;13.60;99.90
11639;DHT22;5875;35.940;126.892;2023-04-25T05:49:44;13.60;99.90
11639;DHT22;5875;35.940;126.892;2023-04-25T05:52:11;13.60;99.90
11639;DHT22;5875;35.940;126.892;2023-04-25T05:54:39;13.50;99.90
11639;DHT22;5875;35.940;126.892;2023-04-25T05:57:06;13.50;99.90
11639;DHT22;5875;35.940;126.892;2023-04-25T05:59:34;13.50;99.90
11639;DHT22;5875;35.940;126.892;2023-04-25T06:02:01;13.50;99.90
11639;DHT22;5875;35.940;126.892;2023-04-25T06:04:28;13.50;99.90
11639;DHT22;5875;35.940;126.892;2023-04-25T06:06:55;13.50;99.90
11639;DHT22;5875;35.940;126.892;2023-04-25T06:09:22;13.40;99.90
11639;DHT22;5875;35.940;126.892;2023-04-25T06:11:50;13.40;99.90
11639;DHT22;5875;35.940;126.892;2023-04-25T06:14:17;13.40;99.90
11639;DHT22;5875;35.940;126.892;2023-04-25T06:16:44;13.50;99.90
11639;DHT22;5875;35.940;126.892;2023-04-25T06:19:11;13.50;99.90
11639;DHT22;5875;35.940;126.892;2023-04-25T06:21:38;13.40;99.90
11639;DHT22;5875;35.940;126.892;2023-04-25T06:24:06;13.40;99.90
11639;DHT22;5875;35.940;126.892;2023-04-25T06:26:33;13.40;99.90
11639;DHT22;5875;35.940;126.892;2023-04-25T06:29:00;13.30;99.90
11639;DHT22;5875;35.940;126.892;2023-04-25T06:31:28;13.30;99.90
11639;DHT22;5875;35.940;126.892;2023-04-25T06:33:55;13.30;99.90
11639;DHT22;5875;35.940;126.892;2023-04-25T06:36:22;13.30;99.90
11639;DHT22;5875;35.940;126.892;2023-04-25T06:38:51;13.30;99.90
11639;DHT22;5875;35.940;126.892;2023-04-25T06:41:19;13.30;99.90
11639;DHT22;5875;35.940;126.892;2023-04-25T06:43:46;13.30;99.90
11639;DHT22;5875;35.940;126.892;2023-04-25T06:46:13;13.20;99.90
11639;DHT22;5875;35.940;126.892;2023-04-25T06:48:40;13.30;99.90
11639;DHT22;5875;35.940;126.892;2023-04-25T06:51:09;13.20;99.90
11639;DHT22;5875;35.940;126.892;2023-04-25T06:53:36;13.10;99.90
11639;DHT22;5875;35.940;126.892;2023-04-25T06:56:04;13.10;99.90
11639;DHT22;5875;35.940;126.892;2023-04-25T06:58:31;13.20;99.90
11639;DHT22;5875;35.940;126.892;2023-04-25T07:00:58;13.10;99.90
11639;DHT22;5875;35.940;126.892;2023-04-25T07:03:26;13.10;99.90
11639;DHT22;5875;35.940;126.892;2023-04-25T07:05:53;13.20;99.90
11639;DHT22;5875;35.940;126.892;2023-04-25T07:08:20;13.20;99.90
11639;DHT22;5875;35.940;126.892;2023-04-25T07:10:48;13.10;99.90
11639;DHT22;5875;35.940;126.892;2023-04-25T07:13:15;13.10;99.90
11639;DHT22;5875;35.940;126.892;2023-04-25T07:15:43;13.20;99.90
11639;DHT22;5875;35.940;126.892;2023-04-25T07:18:10;13.10;99.90
11639;DHT22;5875;35.940;126.892;2023-04-25T07:20:37;13.20;99.90
11639;DHT22;5875;35.940;126.892;2023-04-25T07:23:05;13.20;99.90
11639;DHT22;5875;35.940;126.892;2023-04-25T07:25:32;13.20;99.90
11639;DHT22;5875;35.940;126.892;2023-04-25T07:27:59;13.20;99.90
11639;DHT22;5875;35.940;126.892;2023-04-25T07:30:26;13.20;99.90
11639;DHT22;5875;35.940;126.892;2023-04-25T07:32:53;13.20;99.90
11639;DHT22;5875;35.940;126.892;2023-04-25T07:35:21;13.20;99.90
11639;DHT22;5875;35.940;126.892;2023-04-25T07:37:49;13.30;99.90
11639;DHT22;5875;35.940;126.892;2023-04-25T07:40:16;13.40;99.90
11639;DHT22;5875;35.940;126.892;2023-04-25T07:42:44;13.30;99.90
11639;DHT22;5875;35.940;126.892;2023-04-25T07:45:11;13.20;99.90
11639;DHT22;5875;35.940;126.892;2023-04-25T07:47:38;13.20;99.90
11639;DHT22;5875;35.940;126.892;2023-04-25T07:50:06;13.20;99.90
11639;DHT22;5875;35.940;126.892;2023-04-25T07:52:33;13.20;99.90
11639;DHT22;5875;35.940;126.892;2023-04-25T07:55:00;13.20;99.90
11639;DHT22;5875;35.940;126.892;2023-04-25T07:57:28;13.10;99.90
11639;DHT22;5875;35.940;126.892;2023-04-25T07:59:56;13.20;99.90
11639;DHT22;5875;35.940;126.892;2023-04-25T08:02:23;13.20;99.90
11639;DHT22;5875;35.940;126.892;2023-04-25T08:04:52;13.10;99.90
11639;DHT22;5875;35.940;126.892;2023-04-25T08:07:19;13.20;99.90
11639;DHT22;5875;35.940;126.892;2023-04-25T08:09:46;13.20;99.90
11639;DHT22;5875;35.940;126.892;2023-04-25T08:12:14;13.20;99.90
11639;DHT22;5875;35.940;126.892;2023-04-25T08:14:41;13.20;99.90
11639;DHT22;5875;35.940;126.892;2023-04-25T08:17:09;13.20;99.90
11639;DHT22;5875;35.940;126.892;2023-04-25T08:19:36;13.20;99.90
11639;DHT22;5875;35.940;126.892;2023-04-25T08:22:03;13.20;99.90
11639;DHT22;5875;35.940;126.892;2023-04-25T08:24:31;13.20;99.90
11639;DHT22;5875;35.940;126.892;2023-04-25T08:26:58;13.20;99.90
11639;DHT22;5875;35.940;126.892;2023-04-25T08:29:25;13.10;99.90
11639;DHT22;5875;35.940;126.892;2023-04-25T08:31:52;13.20;99.90
11639;DHT22;5875;35.940;126.892;2023-04-25T08:34:20;13.20;99.90
11639;DHT22;5875;35.940;126.892;2023-04-25T08:36:47;13.30;99.90
11639;DHT22;5875;35.940;126.892;2023-04-25T08:39:14;13.40;99.90
11639;DHT22;5875;35.940;126.892;2023-04-25T08:41:42;13.40;99.90
11639;DHT22;5875;35.940;126.892;2023-04-25T08:44:11;13.30;99.90
11639;DHT22;5875;35.940;126.892;2023-04-25T08:46:41;13.30;99.90
11639;DHT22;5875;35.940;126.892;2023-04-25T08:49:10;13.20;99.90
11639;DHT22;5875;35.940;126.892;2023-04-25T08:51:45;13.10;99.90
11639;DHT22;5875;35.940;126.892;2023-04-25T08:54:17;13.10;99.90
11639;DHT22;5875;35.940;126.892;2023-04-25T08:56:48;13.10;99.90
11639;DHT22;5875;35.940;126.892;2023-04-25T08:59:16;13.10;99.90
11639;DHT22;5875;35.940;126.892;2023-04-25T09:01:43;13.10;99.90
11639;DHT22;5875;35.940;126.892;2023-04-25T09:04:13;13.10;99.90
11639;DHT22;5875;35.940;126.892;2023-04-25T09:06:40;13.10;99.90
11639;DHT22;5875;35.940;126.892;2023-04-25T09:09:08;13.10;99.90
11639;DHT22;5875;35.940;126.892;2023-04-25T09:11:39;13.00;99.90
11639;DHT22;5875;35.940;126.892;2023-04-25T09:14:21;13.10;99.90
11639;DHT22;5875;35.940;126.892;2023-04-25T09:17:00;13.00;99.90
11639;DHT22;5875;35.940;126.892;2023-04-25T09:19:31;13.00;99.90
11639;DHT22;5875;35.940;126.892;2023-04-25T09:22:02;13.00;99.90
11639;DHT22;5875;35.940;126.892;2023-04-25T09:24:37;13.10;99.90
11639;DHT22;5875;35.940;126.892;2023-04-25T09:27:06;13.10;99.90
11639;DHT22;5875;35.940;126.892;2023-04-25T09:29:39;13.10;99.90
11639;DHT22;5875;35.940;126.892;2023-04-25T09:32:19;13.10;99.90
11639;DHT22;5875;35.940;126.892;2023-04-25T09:34:56;13.10;99.90
11639;DHT22;5875;35.940;126.892;2023-04-25T09:37:24;13.10;99.90
11639;DHT22;5875;35.940;126.892;2023-04-25T09:39:56;13.10;99.90
11639;DHT22;5875;35.940;126.892;2023-04-25T09:42:26;13.00;99.90
11639;DHT22;5875;35.940;126.892;2023-04-25T09:44:56;13.00;99.90
11639;DHT22;5875;35.940;126.892;2023-04-25T09:47:24;13.10;99.90
11639;DHT22;5875;35.940;126.892;2023-04-25T09:49:53;13.00;99.90
11639;DHT22;5875;35.940;126.892;2023-04-25T09:52:22;13.00;99.90
11639;DHT22;5875;35.940;126.892;2023-04-25T09:54:51;12.90;99.90
11639;DHT22;5875;35.940;126.892;2023-04-25T09:57:20;12.90;99.90
11639;DHT22;5875;35.940;126.892;2023-04-25T09:59:52;13.00;99.90
11639;DHT22;5875;35.940;126.892;2023-04-25T10:02:22;12.90;99.90
11639;DHT22;5875;35.940;126.892;2023-04-25T10:04:51;13.00;99.90
11639;DHT22;5875;35.940;126.892;2023-04-25T10:07:23;13.00;99.90
11639;DHT22;5875;35.940;126.892;2023-04-25T10:09:59;12.90;99.90
11639;DHT22;5875;35.940;126.892;2023-04-25T10:12:30;12.90;99.90
11639;DHT22;5875;35.940;126.892;2023-04-25T10:14:58;12.80;99.90
11639;DHT22;5875;35.940;126.892;2023-04-25T10:17:26;12.70;99.90
11639;DHT22;5875;35.940;126.892;2023-04-25T10:19:55;12.80;99.90
11639;DHT22;5875;35.940;126.892;2023-04-25T10:25:03;12.90;99.90
11639;DHT22;5875;35.940;126.892;2023-04-25T10:27:33;12.80;99.90
11639;DHT22;5875;35.940;126.892;2023-04-25T10:30:07;12.80;99.90
11639;DHT22;5875;35.940;126.892;2023-04-25T10:32:39;12.80;99.90
11639;DHT22;5875;35.940;126.892;2023-04-25T10:35:23;12.80;99.90
11639;DHT22;5875;35.940;126.892;2023-04-25T10:38:10;12.80;99.90
11639;DHT22;5875;35.940;126.892;2023-04-25T10:40:39;12.80;99.90
11639;DHT22;5875;35.940;126.892;2023-04-25T10:43:37;12.70;99.90
11639;DHT22;5875;35.940;126.892;2023-04-25T10:46:27;12.70;99.90
11639;DHT22;5875;35.940;126.892;2023-04-25T10:49:00;12.60;99.90
11639;DHT22;5875;35.940;126.892;2023-04-25T10:51:34;12.60;99.90
11639;DHT22;5875;35.940;126.892;2023-04-25T10:54:04;12.60;99.90
11639;DHT22;5875;35.940;126.892;2023-04-25T10:56:38;12.60;99.90
11639;DHT22;5875;35.940;126.892;2023-04-25T10:59:08;12.60;99.90
11639;DHT22;5875;35.940;126.892;2023-04-25T11:01:47;12.60;99.90
11639;DHT22;5875;35.940;126.892;2023-04-25T11:09:30;12.60;99.90
11639;DHT22;5875;35.940;126.892;2023-04-25T11:12:00;12.70;99.90
11639;DHT22;5875;35.940;126.892;2023-04-25T11:14:27;12.60;99.90
11639;DHT22;5875;35.940;126.892;2023-04-25T11:16:58;12.50;99.90
11639;DHT22;5875;35.940;126.892;2023-04-25T11:19:27;12.60;99.90
11639;DHT22;5875;35.940;126.892;2023-04-25T11:21:58;12.60;99.90
11639;DHT22;5875;35.940;126.892;2023-04-25T11:24:34;12.70;99.90
11639;DHT22;5875;35.940;126.892;2023-04-25T11:27:02;12.70;99.90
11639;DHT22;5875;35.940;126.892;2023-04-25T11:29:31;12.80;99.90
11639;DHT22;5875;35.940;126.892;2023-04-25T11:31:59;12.70;99.90
11639;DHT22;5875;35.940;126.892;2023-04-25T11:34:28;12.70;99.90
11639;DHT22;5875;35.940;126.892;2023-04-25T11:36:59;12.80;99.90
11639;DHT22;5875;35.940;126.892;2023-04-25T11:39:28;12.70;99.90
11639;DHT22;5875;35.940;126.892;2023-04-25T11:41:56;12.70;99.90
11639;DHT22;5875;35.940;126.892;2023-04-25T11:44:23;12.70;99.90
11639;DHT22;5875;35.940;126.892;2023-04-25T11:46:50;12.90;99.90
11639;DHT22;5875;35.940;126.892;2023-04-25T11:49:18;12.90;99.90
11639;DHT22;5875;35.940;126.892;2023-04-25T11:51:47;12.90;99.90
11639;DHT22;5875;35.940;126.892;2023-04-25T11:54:15;12.90;99.90
11639;DHT22;5875;35.940;126.892;2023-04-25T11:56:46;13.00;99.90
11639;DHT22;5875;35.940;126.892;2023-04-25T11:59:14;13.00;99.90
11639;DHT22;5875;35.940;126.892;2023-04-25T12:01:49;12.90;99.90
11639;DHT22;5875;35.940;126.892;2023-04-25T12:04:21;12.70;99.90
11639;DHT22;5875;35.940;126.892;2023-04-25T12:06:54;12.60;99.90
11639;DHT22;5875;35.940;126.892;2023-04-25T12:09:28;12.60;99.90
11639;DHT22;5875;35.940;126.892;2023-04-25T12:11:57;12.50;99.90
11639;DHT22;5875;35.940;126.892;2023-04-25T12:14:27;12.50;99.90
11639;DHT22;5875;35.940;126.892;2023-04-25T12:16:59;12.60;99.90
11639;DHT22;5875;35.940;126.892;2023-04-25T12:19:32;12.50;99.90
11639;DHT22;5875;35.940;126.892;2023-04-25T12:22:01;12.50;99.90
11639;DHT22;5875;35.940;126.892;2023-04-25T12:24:34;12.40;99.90
11639;DHT22;5875;35.940;126.892;2023-04-25T12:27:04;12.30;99.90
11639;DHT22;5875;35.940;126.892;2023-04-25T12:29:33;12.20;99.90
11639;DHT22;5875;35.940;126.892;2023-04-25T12:32:01;12.20;99.90
11639;DHT22;5875;35.940;126.892;2023-04-25T12:34:28;12.30;99.90
11639;DHT22;5875;35.940;126.892;2023-04-25T12:36:57;12.30;99.90
11639;DHT22;5875;35.940;126.892;2023-04-25T12:39:25;12.30;99.90
11639;DHT22;5875;35.940;126.892;2023-04-25T12:41:52;12.30;99.90
11639;DHT22;5875;35.940;126.892;2023-04-25T12:44:22;12.20;99.90
11639;DHT22;5875;35.940;126.892;2023-04-25T12:46:49;12.20;99.90
11639;DHT22;5875;35.940;126.892;2023-04-25T12:49:17;12.20;99.90
11639;DHT22;5875;35.940;126.892;2023-04-25T12:51:44;12.10;99.90
11639;DHT22;5875;35.940;126.892;2023-04-25T12:54:11;12.00;99.90
11639;DHT22;5875;35.940;126.892;2023-04-25T12:56:41;12.00;99.90
11639;DHT22;5875;35.940;126.892;2023-04-25T12:59:08;12.10;99.90
11639;DHT22;5875;35.940;126.892;2023-04-25T13:01:35;12.10;99.90
11639;DHT22;5875;35.940;126.892;2023-04-25T13:04:03;12.10;99.90
11639;DHT22;5875;35.940;126.892;2023-04-25T13:06:30;12.10;99.90
11639;DHT22;5875;35.940;126.892;2023-04-25T13:08:58;12.00;99.90
11639;DHT22;5875;35.940;126.892;2023-04-25T13:11:25;11.80;99.90
11639;DHT22;5875;35.940;126.892;2023-04-25T13:13:52;11.60;99.90
11639;DHT22;5875;35.940;126.892;2023-04-25T13:16:19;11.70;99.90
11639;DHT22;5875;35.940;126.892;2023-04-25T13:18:49;11.70;99.90
11639;DHT22;5875;35.940;126.892;2023-04-25T13:21:17;11.60;99.90
11639;DHT22;5875;35.940;126.892;2023-04-25T13:23:44;11.60;99.90
11639;DHT22;5875;35.940;126.892;2023-04-25T13:26:13;11.70;99.90
11639;DHT22;5875;35.940;126.892;2023-04-25T13:28:40;11.70;99.90
11639;DHT22;5875;35.940;126.892;2023-04-25T13:31:07;11.60;99.90
11639;DHT22;5875;35.940;126.892;2023-04-25T13:33:34;11.60;99.90
11639;DHT22;5875;35.940;126.892;2023-04-25T13:36:02;11.60;99.90
11639;DHT22;5875;35.940;126.892;2023-04-25T13:38:29;11.60;99.90
11639;DHT22;5875;35.940;126.892;2023-04-25T13:40:57;11.50;99.90
11639;DHT22;5875;35.940;126.892;2023-04-25T13:43:24;11.50;99.90
11639;DHT22;5875;35.940;126.892;2023-04-25T13:45:51;11.40;99.90
11639;DHT22;5875;35.940;126.892;2023-04-25T13:48:19;11.30;99.90
11639;DHT22;5875;35.940;126.892;2023-04-25T13:50:46;11.30;99.90
11639;DHT22;5875;35.940;126.892;2023-04-25T13:53:13;11.20;99.90
11639;DHT22;5875;35.940;126.892;2023-04-25T13:55:41;11.30;99.90
11639;DHT22;5875;35.940;126.892;2023-04-25T13:58:08;11.20;99.90
11639;DHT22;5875;35.940;126.892;2023-04-25T14:00:37;11.30;99.90
11639;DHT22;5875;35.940;126.892;2023-04-25T14:03:05;11.20;99.90
11639;DHT22;5875;35.940;126.892;2023-04-25T14:05:34;11.10;99.90
11639;DHT22;5875;35.940;126.892;2023-04-25T14:08:06;11.10;99.90
11639;DHT22;5875;35.940;126.892;2023-04-25T14:10:33;11.20;99.90
11639;DHT22;5875;35.940;126.892;2023-04-25T14:13:01;11.20;99.90
11639;DHT22;5875;35.940;126.892;2023-04-25T14:15:31;11.20;99.90
11639;DHT22;5875;35.940;126.892;2023-04-25T14:17:58;11.20;99.90
11639;DHT22;5875;35.940;126.892;2023-04-25T14:20:26;11.10;99.90
11639;DHT22;5875;35.940;126.892;2023-04-25T14:22:53;11.00;99.90
11639;DHT22;5875;35.940;126.892;2023-04-25T14:25:22;10.90;99.90
11639;DHT22;5875;35.940;126.892;2023-04-25T14:27:50;10.90;99.90
11639;DHT22;5875;35.940;126.892;2023-04-25T14:30:21;10.80;99.90
11639;DHT22;5875;35.940;126.892;2023-04-25T14:32:51;10.80;99.90
11639;DHT22;5875;35.940;126.892;2023-04-25T14:35:18;10.80;99.90
11639;DHT22;5875;35.940;126.892;2023-04-25T14:37:46;10.70;99.90
11639;DHT22;5875;35.940;126.892;2023-04-25T14:40:14;10.70;99.90
11639;DHT22;5875;35.940;126.892;2023-04-25T14:42:43;10.60;99.90
11639;DHT22;5875;35.940;126.892;2023-04-25T14:45:11;10.60;99.90
11639;DHT22;5875;35.940;126.892;2023-04-25T14:47:38;10.60;99.90
11639;DHT22;5875;35.940;126.892;2023-04-25T14:50:07;10.40;99.90
11639;DHT22;5875;35.940;126.892;2023-04-25T14:52:35;10.50;99.90
11639;DHT22;5875;35.940;126.892;2023-04-25T14:55:03;10.50;99.90
11639;DHT22;5875;35.940;126.892;2023-04-25T14:57:34;10.40;99.90
11639;DHT22;5875;35.940;126.892;2023-04-25T15:00:01;10.40;99.90
11639;DHT22;5875;35.940;126.892;2023-04-25T15:02:31;10.40;99.90
11639;DHT22;5875;35.940;126.892;2023-04-25T15:04:58;10.40;99.90
11639;DHT22;5875;35.940;126.892;2023-04-25T15:07:26;10.40;99.90
11639;DHT22;5875;35.940;126.892;2023-04-25T15:09:53;10.30;99.90
11639;DHT22;5875;35.940;126.892;2023-04-25T15:12:22;10.20;99.90
11639;DHT22;5875;35.940;126.892;2023-04-25T15:14:49;10.10;99.90
11639;DHT22;5875;35.940;126.892;2023-04-25T15:17:17;10.00;99.90
11639;DHT22;5875;35.940;126.892;2023-04-25T15:19:44;10.10;99.90
11639;DHT22;5875;35.940;126.892;2023-04-25T15:22:11;10.00;99.90
11639;DHT22;5875;35.940;126.892;2023-04-25T15:24:38;10.00;99.90
11639;DHT22;5875;35.940;126.892;2023-04-25T15:27:06;9.80;99.90
11639;DHT22;5875;35.940;126.892;2023-04-25T15:29:34;9.70;99.90